URRRURKK

Guest
Details From URRR - Rostov Na Donu
To URKK - PASHKOVSKIY
Flight Number -
Tags generated
Created
Modified
Stats Distance 143 nm / 265 km
Max Altitude 14,800 ft / 4,511 m
Waypoints 3
Social Downloads 0
Likes 0
Share VATSIM

Download

Looking for another format? Having issues loading an existing format? Contact us
Advertisement - Login to hide

Notes

Basic altitude profile: - Ascent Rate: 2500ft/min - Ascent Speed: 250kts - Cruise Altitude: 35000ft - Cruise Speed: 420kts - Descent Rate: 1500ft/min - Descent Speed: 250kts Options: - Use NATs: no - Use PACOTS: no - Use low airways: no - Use high airways: yes

Route

URRR INSER URKK

ID Type Via Altitude Latitude Longitude Leg Dist Tot Dist Heading (true) Name
O URRR APT - 0 ft / 0 m 47.25419˚ 39.81607˚ - 0 nm - Rostov Na Donu
INSER FIX - 14,800 ft / 4,511 m 46.18139˚ 38.95833˚ 73 nm 73 nm 209° / 208° -
O URKK APT - 0 ft / 0 m 45.03464˚ 39.17045˚ 69 nm 142 nm 173° / 173° PASHKOVSKIY

Altitude Profile

Advertisement - Login to hide

URRR

Details ICAO URRR (ROV)
Name Rostov Na Donu
Region Russia
Timezone Europe/Moscow (UTC+3.0)
Stats Elevation 280 ft / 85 m (AMSL)
Location 47.254195° 39.816074°
Runways 3
Magnetic Variation 8.119° E

METAR

URRR 110400Z 25007MPS 8000 SCT030 03/M01 Q1018 R22/290054 TEMPO 24012G17MPS RMK QFE756/1008

Decode

TAF

TAF URRR 110157Z 1103/1203 22009G16MPS 3100 BR SCT011 BKN020CB TEMPO 1103/1112 25012G18MPS

Decode

Departure Runways

ID Width Length Bearing (true) Bearing (mag) Surface Threshold Offset Overrun Length
04 148 ft / 45 m 8,197 ft / 2,499 m 45.65° 37.53° Concrete 0 ft / 0 m 165 ft / 50 m
04R 245 ft / 75 m 6,393 ft / 1,949 m 45.77° 37.65° Grass 0 ft / 0 m 0 ft / 0 m
08 280 ft / 85 m 4,319 ft / 1,316 m 91.91° 83.79° Grass 0 ft / 0 m 0 ft / 0 m
22 148 ft / 45 m 8,197 ft / 2,499 m 225.67° 217.55° Concrete 0 ft / 0 m 165 ft / 50 m
22L 245 ft / 75 m 6,393 ft / 1,949 m 225.78° 217.66° Grass 0 ft / 0 m 0 ft / 0 m
26 280 ft / 85 m 4,319 ft / 1,316 m 271.92° 263.80° Grass 0 ft / 0 m 0 ft / 0 m

URKK

Details ICAO URKK (KRR)
Name PASHKOVSKIY
Region Russia
Timezone Europe/Moscow (UTC+3.0)
Stats Elevation 118 ft / 36 m (AMSL)
Location 45.034644° 39.170454°
Runways 2
Magnetic Variation 7.354° E

METAR

URKK 110400Z 23004MPS CAVOK 04/02 Q1023 R23L/290060 NOSIG RMK QFE764

Decode

TAF

TAF URKK 110155Z 1103/1203 23005G10MPS 9999 BKN020CB TEMPO 1103/1106 27006G14MPS 3100 -SHRA SCT011 BKN020CB FM111300 17003G08MPS 9999 SCT020

Decode

Destination Runways

ID Width Length Bearing (true) Bearing (mag) Surface Threshold Offset Overrun Length
05L 160 ft / 49 m 7,177 ft / 2,187 m 52.37° 45.02° Asphalt 0 ft / 0 m 160 ft / 49 m
05R 145 ft / 44 m 9,822 ft / 2,994 m 52.45° 45.10° Concrete 0 ft / 0 m 160 ft / 49 m
23L 145 ft / 44 m 9,822 ft / 2,994 m 232.47° 225.12° Concrete 0 ft / 0 m 160 ft / 49 m
23R 160 ft / 49 m 7,177 ft / 2,187 m 232.38° 225.03° Asphalt 0 ft / 0 m 160 ft / 49 m

Popular Alternatives